Latest Weather Observations for Bega

IDN60801

Issued at 8:02 am EST Saturday 28 May 2016 (issued every 30 minutes, with the page automatically refreshed every 10 minutes)

About weather observations | Map of weather stations | Latest weather observations for NSW | Other Formats
Station Details ID: 069139 Name: BEGA AWS Lat: -36.67 Lon: 149.82 Height: 41.0 m
Data from the previous 72 hours. | See also: Recent months at Bega
Date/Time
EST
Temp
°C
App
Temp
°C
Dew
Point
Rel
Hum
%
Delta-T
°C
Wind Press
QNH
hPa
Press
MSL
hPa
Rain
since 9 am
mm
Dir
 
Spd
km/h
Gust
km/h
Spd
kts
Gust
kts
28/07:30am 10.3 7.0 2.4 58 3.4 W 9 13 5 7 1006.6 1006.6 0.2
28/07:00am 9.0 7.5 2.8 65 2.6 CALM 0 0 0 0 1006.5 1006.5 0.2
28/06:30am 9.5 7.5 2.1 60 3.1 NW 2 7 1 4 1006.2 1006.2 0.2
28/06:00am 9.9 8.5 3.6 65 2.8 CALM 0 0 0 0 1006.0 1006.0 0.2
28/05:30am 10.3 8.6 4.0 65 2.8 WNW 2 11 1 6 1005.7 1005.7 0.2
28/05:00am 10.7 8.6 3.7 62 3.1 NE 4 9 2 5 1005.5 1005.5 0.2
28/04:30am 11.2 8.3 2.8 56 3.6 SW 7 13 4 7 1005.3 1005.3 0.2
28/04:00am 10.5 7.9 4.0 64 2.9 SW 7 11 4 6 1005.3 1005.3 0.2
28/03:30am 9.9 8.1 5.3 73 2.1 NE 4 6 2 3 1005.3 1005.3 0.2
28/03:00am 10.4 8.1 4.8 68 2.5 SE 6 7 3 4 1005.4 1005.4 0.2
28/02:30am 11.3 8.8 3.8 60 3.3 WSW 6 9 3 5 1005.6 1005.6 0.2
28/02:00am 10.6 8.2 4.5 66 2.7 SSW 6 7 3 4 1005.8 1005.8 0.2
28/01:30am 10.9 7.6 4.6 65 2.8 SW 11 15 6 8 1005.8 1005.8 0.2
28/01:00am 12.7 7.9 2.8 51 4.4 WSW 17 24 9 13 1005.8 1005.8 0.2
28/12:30am 12.9 8.5 2.5 49 4.6 W 15 24 8 13 1005.6 1005.6 0.2
28/12:00am 13.2 8.4 2.4 48 4.8 WSW 17 22 9 12 1005.6 1005.6 0.2
 
Date/Time
EST
Temp
°C
App
Temp
°C
Dew
Point
Rel
Hum
%
Delta-T
°C
Wind Press
QNH
hPa
Press
MSL
hPa
Rain
since 9 am
mm
Dir
 
Spd
km/h
Gust
km/h
Spd
kts
Gust
kts
27/11:30pm 13.0 7.8 2.6 49 4.6 WSW 19 32 10 17 1005.7 1005.7 0.2
27/11:00pm 12.8 10.1 2.9 51 4.4 WSW 6 15 3 8 1005.7 1005.7 0.2
27/10:30pm 13.0 7.9 2.8 50 4.5 SW 19 28 10 15 1005.2 1005.2 0.2
27/10:00pm 12.6 7.4 2.7 51 4.4 SW 19 35 10 19 1005.1 1005.1 0.2
27/09:30pm 12.9 7.3 3.3 52 4.3 SW 22 32 12 17 1005.0 1005.0 0.2
27/09:00pm 13.2 8.0 3.3 51 4.4 WSW 20 35 11 19 1004.9 1004.9 0.2
27/08:30pm 13.3 8.6 3.4 51 4.4 WSW 17 32 9 17 1004.9 1004.9 0.2
27/08:00pm 13.5 6.0 3.3 50 4.6 WSW 32 52 17 28 1004.3 1004.3 0.2
27/07:30pm 13.5 5.0 3.3 50 4.6 SW 37 57 20 31 1004.2 1004.2 0.2
27/07:02pm 13.5 5.8 3.6 51 4.5 WSW 33 52 18 28 1004.2 1004.2 0.2
27/07:00pm 13.5 6.1 3.8 52 4.4 WSW 32 48 17 26 1004.3 1004.3 0.2
27/06:30pm 13.6 6.1 3.7 51 4.5 SW 32 50 17 27 1003.8 1003.8 0.2
27/06:00pm 13.7 5.6 3.5 50 4.6 SW 35 56 19 30 1003.2 1003.2 0.2
27/05:30pm 13.8 5.8 3.6 50 4.6 SW 35 57 19 31 1002.7 1002.7 0.2
27/05:11pm 13.7 6.0 3.5 50 4.6 SW 33 54 18 29 1002.3 1002.3 0.2
27/05:00pm 13.8 5.7 3.3 49 4.7 WSW 35 50 19 27 1002.2 1002.2 0.2
27/04:30pm 13.7 5.2 3.2 49 4.7 WSW 37 67 20 36 1001.8 1001.8 0.2
27/04:02pm 13.8 6.3 3.3 49 4.7 WSW 32 52 17 28 1001.4 1001.4 0.2
27/04:00pm 13.8 6.2 3.0 48 4.9 WSW 32 46 17 25 1001.4 1001.4 0.2
27/03:30pm 14.0 4.7 3.2 48 4.9 WSW 41 61 22 33 1000.9 1000.9 0.2
27/03:00pm 14.1 5.6 3.3 48 4.9 WSW 37 57 20 31 1000.3 1000.3 0.2
27/02:30pm 14.4 7.3 3.5 48 4.9 WSW 30 50 16 27 999.8 999.8 0.2
27/02:00pm 14.8 7.7 3.3 46 5.2 WSW 30 50 16 27 999.4 999.4 0.2
27/01:30pm 14.8 4.2 3.3 46 5.2 WSW 48 72 26 39 999.1 999.1 0.2
27/01:00pm 14.2 5.3 2.8 46 5.1 WSW 39 63 21 34 999.0 999.0 0.2
27/12:53pm 14.4 4.8 3.2 47 5.0 WSW 43 65 23 35 999.2 999.2 0.2
27/12:34pm 14.8 5.9 3.0 45 5.3 WSW 39 80 21 43 998.7 998.7 0.2
27/12:33pm 15.0 6.6 3.5 46 5.2 WSW 37 80 20 43 998.9 998.9 0.0
27/12:30pm 15.3 7.3 3.8 46 5.3 WSW 35 59 19 32 999.0 999.0 0.0
27/12:00pm 14.4 4.8 3.5 48 5.0 SW 43 80 23 43 999.1 999.1 0.0
27/11:51am 14.5 4.3 3.3 47 5.1 WSW 46 80 25 43 999.1 999.1 0.0
27/11:30am 13.9 5.1 3.4 49 4.7 SW 39 61 21 33 999.4 999.4 0.0
27/11:00am 13.8 4.3 3.9 51 4.5 WSW 43 67 23 36 999.6 999.6 0.0
27/10:57am 13.6 3.8 3.4 50 4.6 WSW 44 67 24 36 999.6 999.6 0.0
27/10:30am 13.3 6.1 3.1 50 4.5 WSW 30 48 16 26 999.9 999.9 0.0
27/10:00am 13.0 5.4 2.8 50 4.5 WSW 32 54 17 29 999.8 999.8 0.0
27/09:30am 13.2 4.7 3.0 50 4.5 WSW 37 63 20 34 999.8 999.8 0.0
27/09:00am 12.7 4.5 2.8 51 4.4 WSW 35 61 19 33 999.9 999.9 5.2
27/08:30am 12.6 3.9 2.2 49 4.5 WSW 37 65 20 35 1000.0 1000.0 5.2
27/08:00am 12.4 4.5 2.3 50 4.4 WSW 33 65 18 35 999.7 999.7 5.2
27/07:30am 11.9 3.7 2.9 54 3.9 WSW 35 56 19 30 999.6 999.6 5.2
27/07:00am 11.7 3.5 2.7 54 3.9 WSW 35 67 19 36 999.7 999.7 5.2
27/06:30am 11.9 4.4 3.2 55 3.8 WSW 32 52 17 28 999.6 999.6 5.2
27/06:16am 12.0 4.5 3.3 55 3.8 WSW 32 50 17 27 999.7 999.7 5.2
27/06:00am 12.0 4.9 3.5 56 3.8 WSW 30 46 16 25 999.4 999.4 5.2
27/05:30am 12.1 6.5 3.6 56 3.8 WSW 22 39 12 21 999.7 999.7 5.2
27/05:00am 12.5 6.9 3.5 54 4.0 WSW 22 39 12 21 999.5 999.5 5.2
27/04:32am 12.9 6.2 3.6 53 4.2 WSW 28 59 15 32 999.4 999.4 5.2
27/04:30am 12.8 6.9 4.0 55 4.0 WSW 24 41 13 22 999.4 999.4 5.2
27/04:00am 12.8 7.4 4.3 56 3.9 WSW 22 33 12 18 999.2 999.2 5.2
27/03:30am 12.8 7.0 4.5 57 3.8 WSW 24 41 13 22 998.9 998.9 5.2
27/03:00am 12.9 5.9 4.3 56 3.9 WSW 30 41 16 22 998.9 998.9 5.2
27/02:34am 12.9 6.4 4.6 57 3.8 WSW 28 46 15 25 999.1 999.1 5.2
27/02:30am 12.7 6.2 4.7 58 3.7 WSW 28 43 15 23 999.1 999.1 5.2
27/02:25am 12.9 6.4 4.6 57 3.8 WSW 28 43 15 23 999.0 999.0 5.2
27/02:00am 12.6 8.2 4.8 59 3.6 WSW 17 24 9 13 999.3 999.3 5.2
27/01:30am 12.7 7.6 4.2 56 3.9 W 20 35 11 19 999.0 999.0 5.2
27/01:00am 12.5 6.3 4.2 57 3.8 WSW 26 44 14 24 999.0 999.0 5.2
27/12:30am 12.4 7.9 4.1 57 3.8 WSW 17 28 9 15 999.4 999.4 5.2
27/12:00am 12.0 7.6 4.7 61 3.4 SW 17 26 9 14 999.6 999.6 5.2
 
Date/Time
EST
Temp
°C
App
Temp
°C
Dew
Point
Rel
Hum
%
Delta-T
°C
Wind Press
QNH
hPa
Press
MSL
hPa
Rain
since 9 am
mm
Dir
 
Spd
km/h
Gust
km/h
Spd
kts
Gust
kts
26/11:30pm 11.7 7.7 4.9 63 3.1 SW 15 26 8 14 999.9 999.9 5.2
26/11:00pm 12.0 7.3 5.9 66 2.9 WSW 20 39 11 21 999.9 999.9 5.2
26/10:30pm 8.1 6.9 8.0 99 0.0 SW 4 7 2 4 1000.2 1000.2 5.2
26/10:00pm 8.0 6.2 7.9 99 0.0 NW 7 13 4 7 1000.2 1000.2 5.2
26/09:30pm 8.0 6.4 7.9 99 0.0 NE 6 11 3 6 1000.3 1000.3 5.2
26/09:00pm 8.7 6.3 8.6 99 0.0 NW 11 19 6 10 1000.2 1000.2 5.2
26/08:30pm 8.7 7.6 8.6 99 0.0 SSW 4 7 2 4 1000.3 1000.3 5.2
26/08:00pm 8.5 7.0 8.4 99 0.0 E 6 7 3 4 999.9 999.9 5.2
26/07:30pm 9.1 8.1 8.8 98 0.1 SSW 4 7 2 4 999.7 999.7 5.2
26/07:00pm 10.4 10.5 10.2 99 0.1 CALM 0 0 0 0 999.6 999.6 5.2
26/06:30pm 10.5 9.8 10.2 98 0.2 N 4 7 2 4 999.5 999.5 5.2
26/06:00pm 11.0 11.2 10.7 98 0.2 CALM 0 0 0 0 999.4 999.4 5.2
26/05:30pm 11.7 12.1 11.1 96 0.3 CALM 0 0 0 0 999.1 999.1 5.2
26/05:00pm 11.8 11.0 11.0 95 0.4 N 6 7 3 4 998.9 998.9 5.2
26/04:30pm 12.3 11.6 11.4 94 0.5 NNW 6 7 3 4 999.1 999.1 5.2
26/04:00pm 12.6 12.7 11.5 93 0.6 NW 2 6 1 3 999.1 999.1 5.2
26/03:30pm 12.6 13.3 12.1 97 0.3 CALM 0 0 0 0 998.8 998.8 5.2
26/03:00pm 11.9 11.6 11.6 98 0.2 SW 4 7 2 4 999.0 999.0 5.2
26/02:30pm 11.6 10.8 11.1 97 0.3 SW 6 7 3 4 998.9 998.9 5.2
26/02:00pm 11.4 9.7 11.1 98 0.2 SSW 11 13 6 7 998.7 998.7 5.0
26/01:30pm 11.3 10.9 11.1 99 0.1 S 4 9 2 5 999.1 999.1 5.0
26/01:00pm 11.2 11.5 10.9 98 0.2 CALM 0 0 0 0 999.8 999.8 4.6
26/12:30pm 11.4 10.6 11.2 99 0.1 SE 6 7 3 4 1000.1 1000.1 3.8
26/12:00pm 11.1 11.3 10.6 97 0.3 CALM 0 0 0 0 1000.5 1000.5 3.2
26/11:30am 10.9 11.1 10.4 97 0.3 CALM 0 6 0 3 1001.0 1001.0 2.8
26/11:00am 10.7 10.9 10.5 99 0.1 CALM 0 4 0 2 1002.0 1002.0 2.6
26/10:30am 10.1 9.0 10.0 99 0.1 SSW 6 7 3 4 1002.8 1002.8 2.4
26/10:00am 10.0 8.9 9.9 99 0.1 SSW 6 6 3 3 1003.2 1003.2 1.4
26/09:30am 9.6 9.4 9.1 97 0.2 CALM 0 0 0 0 1003.7 1003.7 0.8
26/09:00am 9.4 9.2 8.9 97 0.2 CALM 0 0 0 0 1004.2 1004.2 2.8
26/08:30am 9.4 9.1 8.8 96 0.3 CALM 0 0 0 0 1004.7 1004.7 1.6
26/08:00am 9.3 9.0 8.5 95 0.4 CALM 0 0 0 0 1004.7 1004.7 0.6
26/07:30am 9.2 8.8 8.3 94 0.4 CALM 0 0 0 0 1004.8 1004.8 0.0
26/07:00am 9.2 8.4 8.1 93 0.5 S 2 7 1 4 1005.0 1005.0 0.0
26/06:30am 9.1 7.4 8.2 94 0.4 W 7 9 4 5 1005.0 1005.0 0.0
26/06:00am 9.1 8.6 8.0 93 0.5 CALM 0 0 0 0 1005.4 1005.4 0.0
26/05:30am 9.2 8.7 8.0 92 0.6 CALM 0 0 0 0 1005.8 1005.8 0.0
26/05:00am 9.3 8.9 8.1 92 0.6 CALM 0 0 0 0 1005.9 1005.9 0.0
26/04:30am 9.0 8.2 8.1 94 0.4 SW 2 7 1 4 1006.2 1006.2 0.0
26/04:00am 9.1 8.7 8.2 94 0.4 CALM 0 0 0 0 1006.3 1006.3 0.0
26/03:30am 9.4 8.2 8.2 92 0.6 W 4 9 2 5 1006.7 1006.7 0.0
26/03:00am 9.2 8.0 8.1 93 0.5 WSW 4 6 2 3 1007.0 1007.0 0.0
26/02:30am 9.1 7.5 8.2 94 0.4 SSE 6 7 3 4 1007.6 1007.6 0.0
26/02:00am 9.5 9.0 7.9 90 0.8 CALM 0 6 0 3 1008.2 1008.2 0.0
26/01:30am 9.4 8.9 8.0 91 0.7 CALM 0 0 0 0 1008.5 1008.5 0.0
26/01:00am 9.4 9.0 8.2 92 0.6 CALM 0 0 0 0 1009.1 1009.1 0.0
26/12:30am 9.7 9.3 8.1 90 0.8 CALM 0 6 0 3 1009.4 1009.4 0.0
26/12:00am 9.6 9.2 8.2 91 0.7 CALM 0 9 0 5 1010.0 1010.0 0.0
 
Date/Time
EST
Temp
°C
App
Temp
°C
Dew
Point
Rel
Hum
%
Delta-T
°C
Wind Press
QNH
hPa
Press
MSL
hPa
Rain
since 9 am
mm
Dir
 
Spd
km/h
Gust
km/h
Spd
kts
Gust
kts
25/11:30pm 9.6 8.0 8.2 91 0.7 SE 6 9 3 5 1010.2 1010.2 0.0
25/11:00pm 10.3 9.9 8.2 87 1.0 CALM 0 0 0 0 1010.8 1010.8 0.0
25/10:30pm 10.1 9.2 7.9 86 1.1 SSE 2 7 1 4 1011.2 1011.2 0.0
25/10:00pm 10.3 9.3 7.5 83 1.3 WNW 2 7 1 4 1011.5 1011.5 0.0
25/09:30pm 10.4 9.8 7.5 82 1.4 CALM 0 0 0 0 1012.2 1012.2 0.0
25/09:00pm 10.9 10.2 7.0 77 1.9 CALM 0 0 0 0 1012.2 1012.2 0.0
25/08:30pm 11.0 10.3 7.1 77 1.9 CALM 0 4 0 2 1011.8 1011.8 0.0
25/08:00pm 11.0 10.3 6.9 76 2.0 CALM 0 0 0 0 1011.9 1011.9 0.0
25/07:30pm 10.9 10.2 7.0 77 1.9 CALM 0 0 0 0 1012.0 1012.0 0.0
25/07:00pm 11.4 10.7 6.9 74 2.1 CALM 0 0 0 0 1012.1 1012.1 0.0
25/06:30pm 12.2 11.0 6.5 68 2.7 NW 2 7 1 4 1012.3 1012.3 0.0
25/06:00pm 12.5 11.8 6.8 68 2.7 CALM 0 0 0 0 1012.4 1012.4 0.0
25/05:30pm 13.2 12.0 6.5 64 3.2 W 2 7 1 4 1012.2 1012.2 0.0
25/05:00pm 14.0 13.2 6.6 61 3.6 CALM 0 0 0 0 1012.1 1012.1 0.0
25/04:30pm 14.3 12.4 6.9 61 3.6 SSE 6 9 3 5 1012.1 1012.1 0.0
25/04:00pm 15.3 13.3 6.3 55 4.4 ENE 6 7 3 4 1012.0 1012.0 0.0
25/03:30pm 15.8 13.7 6.5 54 4.5 ESE 7 11 4 6 1011.9 1011.9 0.0
25/03:00pm 16.0 13.4 6.2 52 4.8 SE 9 11 5 6 1012.1 1012.1 0.0
25/02:30pm 16.5 13.6 4.5 45 5.7 SE 9 13 5 7 1012.0 1012.0 0.0
25/02:00pm 17.3 14.4 4.9 44 5.9 ESE 9 15 5 8 1012.2 1012.2 0.0
25/01:30pm 18.2 15.4 5.1 42 6.3 NE 9 11 5 6 1012.2 1012.2 0.0
25/01:00pm 17.0 15.1 4.7 44 5.8 ENE 4 7 2 4 1013.0 1013.0 0.0
25/12:30pm 17.1 14.2 4.8 44 5.9 ENE 9 13 5 7 1013.3 1013.3 0.0
25/12:00pm 16.3 13.2 5.6 49 5.1 ENE 11 15 6 8 1013.8 1013.9 0.0
25/11:30am 16.2 14.0 5.2 48 5.2 NE 6 11 3 6 1014.7 1014.8 0.0
25/11:00am 14.2 12.8 5.6 56 4.1 S 2 7 1 4 1015.3 1015.4 0.0
25/10:30am 13.2 11.1 6.8 65 3.1 ENE 7 9 4 5 1015.7 1015.7 0.0
25/10:00am 11.2 10.3 5.9 70 2.5 CALM 0 0 0 0 1016.1 1016.1 0.0
25/09:30am 7.9 6.7 4.8 81 1.4 CALM 0 0 0 0 1016.5 1016.5 0.0
25/09:00am 6.4 4.4 4.2 86 0.9 SSE 4 7 2 4 1016.8 1016.8 0.0
25/08:30am 3.9 2.4 2.9 93 0.4 CALM 0 0 0 0 1016.8 1016.8 0.0

Other Formats:

Comma delimited format used in spreadsheet applications
http://www.bom.gov.au/fwo/IDN60801/IDN60801.95931.axf

JavaScript Object Notation format (JSON) in row-major order
http://www.bom.gov.au/fwo/IDN60801/IDN60801.95931.json